createdAt,value
2018-01-21T00:00:19.665Z,93.50
2018-01-21T00:02:47.148Z,93.40
2018-01-21T00:05:14.614Z,93.40
2018-01-21T00:07:42.082Z,93.40
2018-01-21T00:10:09.659Z,93.40
2018-01-21T00:12:37.110Z,93.50
2018-01-21T00:15:04.589Z,93.40
2018-01-21T00:17:32.041Z,93.50
2018-01-21T00:19:59.494Z,93.60
2018-01-21T00:22:38.888Z,93.60
2018-01-21T00:25:06.432Z,93.50
2018-01-21T00:27:33.905Z,93.60
2018-01-21T00:30:01.385Z,93.60
2018-01-21T00:32:28.959Z,93.60
2018-01-21T00:34:56.425Z,93.60
2018-01-21T00:37:23.913Z,93.60
2018-01-21T00:39:51.376Z,93.60
2018-01-21T00:42:18.832Z,93.50
2018-01-21T00:44:46.292Z,93.40
2018-01-21T00:47:13.773Z,93.30
2018-01-21T00:49:41.226Z,93.20
2018-01-21T00:52:08.713Z,93.20
2018-01-21T00:54:36.273Z,93.20
2018-01-21T00:57:03.740Z,93.30
2018-01-21T00:59:31.213Z,93.20
2018-01-21T01:01:58.668Z,93.10
2018-01-21T01:04:26.156Z,93.20
2018-01-21T01:06:53.632Z,93.10
2018-01-21T01:09:21.301Z,93.30
2018-01-21T01:11:48.764Z,93.30
2018-01-21T01:14:16.411Z,93.30
2018-01-21T01:16:43.873Z,93.20
2018-01-21T01:19:11.378Z,93.30
2018-01-21T01:21:38.853Z,93.40
2018-01-21T01:24:06.309Z,93.40
2018-01-21T01:26:33.897Z,93.50
2018-01-21T01:29:01.347Z,93.30
2018-01-21T01:31:28.826Z,93.40
2018-01-21T01:33:56.289Z,93.60
2018-01-21T01:36:23.775Z,93.40
2018-01-21T01:38:51.225Z,93.50
2018-01-21T01:41:18.694Z,93.40
2018-01-21T01:43:46.150Z,93.40
2018-01-21T01:46:13.648Z,93.50
2018-01-21T01:48:41.217Z,93.50
2018-01-21T01:51:08.681Z,93.60
2018-01-21T01:53:36.149Z,93.60
2018-01-21T01:56:03.612Z,93.40
2018-01-21T01:58:31.092Z,93.60
2018-01-21T02:00:58.562Z,93.60
2018-01-21T02:03:26.021Z,93.60
2018-01-21T02:05:53.476Z,93.60
2018-01-21T02:08:20.965Z,93.60
2018-01-21T02:10:48.425Z,93.60
2018-01-21T02:13:15.876Z,93.60
2018-01-21T02:15:43.333Z,93.60
2018-01-21T02:18:10.836Z,93.60
2018-01-21T02:20:38.300Z,93.60
2018-01-21T02:23:05.760Z,93.60
2018-01-21T02:25:33.245Z,93.60
2018-01-21T02:28:00.706Z,93.60
2018-01-21T02:30:28.160Z,93.60
2018-01-21T02:32:55.652Z,93.70
2018-01-21T02:35:23.109Z,93.60
2018-01-21T02:37:50.744Z,93.60
2018-01-21T02:40:18.977Z,93.40
2018-01-21T02:42:46.461Z,93.40
2018-01-21T02:45:13.917Z,93.40
2018-01-21T02:47:41.387Z,93.40
2018-01-21T02:50:08.849Z,93.40
2018-01-21T02:52:36.312Z,93.40
2018-01-21T02:55:03.797Z,93.40
2018-01-21T02:57:31.261Z,93.40
2018-01-21T02:59:58.713Z,93.50
2018-01-21T03:02:26.185Z,93.50
2018-01-21T03:04:53.649Z,93.40
2018-01-21T03:07:21.102Z,93.40
2018-01-21T03:09:48.554Z,93.50
2018-01-21T03:12:16.013Z,93.50
2018-01-21T03:14:44.269Z,93.60
2018-01-21T03:17:11.733Z,93.50
2018-01-21T03:19:39.302Z,93.60
2018-01-21T03:22:06.775Z,93.70
2018-01-21T03:24:34.350Z,93.70
2018-01-21T03:27:01.810Z,93.70
2018-01-21T03:29:29.276Z,93.70
2018-01-21T03:31:56.746Z,93.70
2018-01-21T03:34:24.205Z,93.70
2018-01-21T03:36:51.684Z,93.70
2018-01-21T03:39:19.257Z,93.70
2018-01-21T03:41:46.717Z,93.70
2018-01-21T03:44:14.198Z,93.70
2018-01-21T03:46:41.667Z,93.70
2018-01-21T03:49:09.125Z,93.70
2018-01-21T03:51:36.581Z,93.60
2018-01-21T03:54:04.038Z,93.50
2018-01-21T03:56:31.572Z,93.50
2018-01-21T03:58:59.828Z,93.50
2018-01-21T04:01:27.289Z,93.50
2018-01-21T04:03:54.754Z,93.60
2018-01-21T04:06:22.258Z,93.50
2018-01-21T04:08:49.805Z,93.40
2018-01-21T04:11:17.257Z,93.30
2018-01-21T04:13:44.718Z,93.30
2018-01-21T04:16:12.208Z,93.30
2018-01-21T04:18:39.666Z,93.30
2018-01-21T04:21:07.135Z,93.30
2018-01-21T04:23:34.585Z,93.20
2018-01-21T04:26:02.093Z,93.20
2018-01-21T04:28:29.550Z,93.20
2018-01-21T04:30:56.997Z,93.00
2018-01-21T04:33:24.493Z,93.00
2018-01-21T04:35:51.962Z,92.90
2018-01-21T04:38:19.410Z,92.80
2018-01-21T04:40:46.865Z,92.80
2018-01-21T04:43:14.313Z,92.80
2018-01-21T04:45:42.529Z,92.90
2018-01-21T04:48:09.989Z,92.90
2018-01-21T04:50:37.449Z,92.80
2018-01-21T04:53:04.960Z,92.80
2018-01-21T04:55:32.408Z,92.80
2018-01-21T04:57:59.866Z,92.70
2018-01-21T05:00:27.326Z,92.60
2018-01-21T05:02:54.764Z,92.80
2018-01-21T05:05:22.975Z,93.10
2018-01-21T05:07:50.425Z,92.80
2018-01-21T05:10:18.683Z,92.80
2018-01-21T05:12:46.173Z,92.80
2018-01-21T05:15:14.397Z,93.10
2018-01-21T05:17:41.841Z,92.80
2018-01-21T05:20:10.084Z,92.80
2018-01-21T05:22:37.560Z,92.80
2018-01-21T05:25:05.124Z,92.80
2018-01-21T05:27:32.573Z,92.80
2018-01-21T05:30:00.026Z,92.60
2018-01-21T05:32:27.535Z,92.70
2018-01-21T05:34:55.006Z,92.50
2018-01-21T05:37:22.477Z,92.60
2018-01-21T05:39:53.401Z,92.50
2018-01-21T05:42:20.898Z,92.60
2018-01-21T05:44:48.349Z,92.40
2018-01-21T05:47:15.801Z,92.40
2018-01-21T05:49:43.254Z,92.40
2018-01-21T05:52:10.718Z,92.30
2018-01-21T05:54:38.171Z,92.20
2018-01-21T05:57:06.402Z,92.50
2018-01-21T05:59:33.893Z,92.40
2018-01-21T06:02:01.353Z,92.60
2018-01-21T06:04:28.806Z,92.50
2018-01-21T06:06:56.261Z,92.30
2018-01-21T06:09:23.709Z,92.30
2018-01-21T06:11:51.920Z,92.30
2018-01-21T06:14:19.369Z,92.30
2018-01-21T06:16:46.826Z,92.30
2018-01-21T06:19:15.037Z,92.20
2018-01-21T06:21:42.546Z,92.10
2018-01-21T06:24:10.001Z,92.20
2018-01-21T06:26:37.489Z,92.30
2018-01-21T06:29:04.949Z,92.10
2018-01-21T06:31:32.535Z,92.10
2018-01-21T06:33:59.998Z,91.90
2018-01-21T06:36:27.460Z,92.00
2018-01-21T06:38:54.937Z,91.90
2018-01-21T06:41:22.853Z,92.00
2018-01-21T06:43:50.305Z,91.70
2018-01-21T06:46:17.753Z,92.10
2018-01-21T06:48:45.209Z,92.10
2018-01-21T06:51:12.656Z,91.90
2018-01-21T06:53:40.109Z,92.10
2018-01-21T06:56:07.563Z,92.20
2018-01-21T06:58:35.802Z,92.30
2018-01-21T07:01:03.261Z,92.30
2018-01-21T07:03:30.717Z,92.30
2018-01-21T07:05:58.186Z,92.20
2018-01-21T07:08:25.636Z,92.20
2018-01-21T07:10:53.085Z,91.90
2018-01-21T07:13:21.301Z,91.80
2018-01-21T07:15:48.801Z,91.80
2018-01-21T07:18:16.256Z,92.00
2018-01-21T07:20:43.843Z,92.00
2018-01-21T07:23:11.314Z,91.80
2018-01-21T07:25:38.769Z,92.00
2018-01-21T07:28:06.221Z,92.20
2018-01-21T07:30:33.675Z,91.90
2018-01-21T07:33:01.133Z,91.90
2018-01-21T07:35:28.582Z,91.80
2018-01-21T07:37:56.078Z,91.80
2018-01-21T07:40:24.285Z,91.70
2018-01-21T07:42:51.754Z,91.70
2018-01-21T07:45:19.253Z,91.80
2018-01-21T07:47:46.714Z,91.50
2018-01-21T07:50:14.157Z,91.70
2018-01-21T07:52:41.773Z,91.90
2018-01-21T07:55:09.271Z,92.00
2018-01-21T07:57:37.525Z,91.90
2018-01-21T08:00:04.983Z,91.90
2018-01-21T08:02:32.441Z,91.80
2018-01-21T08:04:59.929Z,91.80
2018-01-21T08:07:27.959Z,91.70
2018-01-21T08:09:55.474Z,91.60
2018-01-21T08:12:22.942Z,91.60
2018-01-21T08:14:50.505Z,91.20
2018-01-21T08:17:17.969Z,91.30
2018-01-21T08:19:45.428Z,91.20
2018-01-21T08:22:12.926Z,90.80
2018-01-21T08:24:40.375Z,90.80
2018-01-21T08:27:07.826Z,90.90
2018-01-21T08:29:35.328Z,91.00
2018-01-21T08:32:02.797Z,91.00
2018-01-21T08:34:35.850Z,90.80
2018-01-21T08:37:09.117Z,91.10
2018-01-21T08:39:42.286Z,90.90
2018-01-21T08:42:09.883Z,90.80
2018-01-21T08:44:37.371Z,90.80
2018-01-21T08:47:05.641Z,90.80
2018-01-21T08:49:33.090Z,90.80
2018-01-21T08:52:00.567Z,90.70
2018-01-21T08:54:28.130Z,90.80
2018-01-21T08:56:55.629Z,90.80
2018-01-21T08:59:23.082Z,90.50
2018-01-21T09:01:50.533Z,90.70
2018-01-21T09:04:17.989Z,90.70
2018-01-21T09:06:45.494Z,90.70
2018-01-21T09:09:12.958Z,90.80
2018-01-21T09:11:40.410Z,90.40
2018-01-21T09:14:07.872Z,90.40
2018-01-21T09:16:35.374Z,90.40
2018-01-21T09:19:02.837Z,90.50
2018-01-21T09:21:30.723Z,90.30
2018-01-21T09:23:58.173Z,90.00
2018-01-21T09:26:25.625Z,90.20
2018-01-21T09:28:53.073Z,90.30
2018-01-21T09:31:20.526Z,90.00
2018-01-21T09:33:48.749Z,90.30
2018-01-21T09:36:16.201Z,90.30
2018-01-21T09:38:43.710Z,90.40
2018-01-21T09:41:11.190Z,90.60
2018-01-21T09:43:38.633Z,90.80
2018-01-21T09:46:06.124Z,90.60
2018-01-21T09:48:33.569Z,90.80
2018-01-21T09:51:01.020Z,90.80
2018-01-21T09:53:28.480Z,90.80
2018-01-21T09:55:56.003Z,90.90
2018-01-21T09:58:24.241Z,91.00
2018-01-21T10:00:51.749Z,91.00
2018-01-21T10:03:19.200Z,90.80
2018-01-21T10:05:46.652Z,91.00
2018-01-21T10:08:14.108Z,90.80
2018-01-21T10:10:41.635Z,91.20
2018-01-21T10:13:09.085Z,91.20
2018-01-21T10:15:36.732Z,91.10
2018-01-21T10:18:04.497Z,91.10
2018-01-21T10:20:32.011Z,91.40
2018-01-21T10:22:59.490Z,91.40
2018-01-21T10:25:26.939Z,91.40
2018-01-21T10:27:54.398Z,91.20
2018-01-21T10:30:21.894Z,91.30
2018-01-21T10:32:49.350Z,91.50
2018-01-21T10:35:16.825Z,91.10
2018-01-21T10:37:44.370Z,91.20
2018-01-21T10:40:11.861Z,91.20
2018-01-21T10:42:39.503Z,91.20
2018-01-21T10:45:06.989Z,91.40
2018-01-21T10:47:34.446Z,90.80
2018-01-21T10:50:01.945Z,90.80
2018-01-21T10:52:29.429Z,91.00
2018-01-21T10:54:56.907Z,90.00
2018-01-21T10:57:24.576Z,90.30
2018-01-21T10:59:52.489Z,90.30
2018-01-21T11:02:20.019Z,90.00
2018-01-21T11:04:47.489Z,89.60
2018-01-21T11:07:15.047Z,89.40
2018-01-21T11:09:42.553Z,89.60
2018-01-21T11:12:10.768Z,90.00
2018-01-21T11:14:38.361Z,90.00
2018-01-21T11:17:05.910Z,90.30
2018-01-21T11:19:33.369Z,89.40
2018-01-21T11:22:00.817Z,88.70
2018-01-21T11:24:29.369Z,87.00
2018-01-21T11:26:56.873Z,87.00
2018-01-21T11:29:25.090Z,86.30
2018-01-21T11:31:52.574Z,86.20
2018-01-21T11:34:20.065Z,85.80
2018-01-21T11:36:47.627Z,85.60
2018-01-21T11:39:16.188Z,84.10
2018-01-21T11:41:43.685Z,82.10
2018-01-21T11:44:11.237Z,81.10
2018-01-21T11:46:38.745Z,83.70
2018-01-21T11:49:06.281Z,84.00
2018-01-21T11:51:33.754Z,84.80
2018-01-21T11:54:01.274Z,84.20
2018-01-21T11:56:29.678Z,85.40
2018-01-21T11:58:57.926Z,85.30
2018-01-21T12:01:25.497Z,85.30
2018-01-21T12:03:53.259Z,86.30
2018-01-21T12:06:20.759Z,87.10
2018-01-21T12:08:48.221Z,88.00
2018-01-21T12:11:15.697Z,87.00
2018-01-21T12:13:43.174Z,87.10
2018-01-21T12:16:10.740Z,86.90
2018-01-21T12:18:39.072Z,87.00
2018-01-21T12:21:06.749Z,87.00
2018-01-21T12:23:34.442Z,85.80
2018-01-21T12:26:02.114Z,85.30
2018-01-21T12:28:29.683Z,86.60
2018-01-21T12:30:57.327Z,87.10
2018-01-21T12:33:24.807Z,87.20
2018-01-21T12:35:52.277Z,86.40
2018-01-21T12:38:19.967Z,85.90
2018-01-21T12:40:47.437Z,86.30
2018-01-21T12:43:14.883Z,85.00
2018-01-21T12:45:43.118Z,82.30
2018-01-21T12:48:10.611Z,82.20
2018-01-21T12:50:38.141Z,82.70
2018-01-21T12:53:05.668Z,82.00
2018-01-21T12:55:34.071Z,82.30
2018-01-21T12:58:02.490Z,82.90
2018-01-21T13:00:30.133Z,82.90
2018-01-21T13:04:52.963Z,80.60
2018-01-21T13:09:07.508Z,79.10
2018-01-21T13:11:35.898Z,78.20
2018-01-21T13:14:03.468Z,78.00
2018-01-21T13:16:31.252Z,76.80
2018-01-21T13:18:59.019Z,77.60
2018-01-21T13:21:26.622Z,77.20
2018-01-21T13:23:54.170Z,77.10
2018-01-21T13:26:21.937Z,78.30
2018-01-21T13:28:49.512Z,79.60
2018-01-21T13:31:17.283Z,80.20
2018-01-21T13:33:44.958Z,80.00
2018-01-21T13:36:12.649Z,77.80
2018-01-21T13:38:40.329Z,79.30
2018-01-21T13:41:08.089Z,79.40
2018-01-21T13:43:35.758Z,79.30
2018-01-21T13:46:03.233Z,79.50
2018-01-21T13:48:31.000Z,80.70
2018-01-21T13:50:58.535Z,82.20
2018-01-21T13:53:26.163Z,81.50
2018-01-21T13:55:53.791Z,81.70
2018-01-21T13:58:22.313Z,84.50
2018-01-21T14:00:50.192Z,84.50
2018-01-21T14:03:17.961Z,84.90
2018-01-21T14:05:45.656Z,84.50
2018-01-21T14:08:13.526Z,84.60
2018-01-21T14:10:41.297Z,84.20
2018-01-21T14:13:08.966Z,85.20
2018-01-21T14:15:36.522Z,85.60
2018-01-21T14:18:04.736Z,85.20
2018-01-21T14:20:32.182Z,85.10
2018-01-21T14:23:00.447Z,83.90
2018-01-21T14:25:27.941Z,83.80
2018-01-21T14:27:56.218Z,82.20
2018-01-21T14:30:23.706Z,82.10
2018-01-21T14:32:51.162Z,82.50
2018-01-21T14:35:19.593Z,83.30
2018-01-21T14:37:47.136Z,83.30
2018-01-21T14:40:15.369Z,83.50
2018-01-21T14:42:42.845Z,83.50
2018-01-21T14:45:10.361Z,84.20
2018-01-21T14:47:38.656Z,85.80
2018-01-21T14:50:06.172Z,85.80
2018-01-21T14:52:33.682Z,86.10
2018-01-21T14:55:01.135Z,85.00
2018-01-21T14:57:29.393Z,85.70
2018-01-21T14:59:56.913Z,85.70
2018-01-21T15:02:24.445Z,85.60
2018-01-21T15:04:51.937Z,86.30
2018-01-21T15:07:20.153Z,86.40
2018-01-21T15:09:48.329Z,86.30
2018-01-21T15:12:15.892Z,87.00
2018-01-21T15:14:44.109Z,87.80
2018-01-21T15:17:12.072Z,87.80
2018-01-21T15:19:39.950Z,87.70
2018-01-21T15:22:07.776Z,88.40
2018-01-21T15:24:36.029Z,89.60
2018-01-21T15:27:03.531Z,89.60
2018-01-21T15:29:30.999Z,89.80
2018-01-21T15:31:58.923Z,89.90
2018-01-21T15:34:26.387Z,90.00
2018-01-21T15:36:54.889Z,90.30
2018-01-21T15:39:22.554Z,90.20
2018-01-21T15:41:50.049Z,90.50
2018-01-21T15:44:17.545Z,90.80
2018-01-21T15:46:44.997Z,90.90
2018-01-21T15:49:12.495Z,91.10
2018-01-21T15:51:39.945Z,91.10
2018-01-21T15:54:07.397Z,91.20
2018-01-21T15:56:34.939Z,91.30
2018-01-21T15:59:03.169Z,91.60
2018-01-21T16:01:30.665Z,91.60
2018-01-21T16:03:58.226Z,91.50
2018-01-21T16:06:25.688Z,91.70
2018-01-21T16:08:53.328Z,91.90
2018-01-21T16:11:20.782Z,92.10
2018-01-21T16:13:49.163Z,92.30
2018-01-21T16:16:17.378Z,92.30
2018-01-21T16:18:44.826Z,92.30
2018-01-21T16:21:13.070Z,92.40
2018-01-21T16:23:40.542Z,92.40
2018-01-21T16:26:08.052Z,92.40
2018-01-21T16:28:36.311Z,92.40
2018-01-21T16:31:03.765Z,92.40
2018-01-21T16:33:31.342Z,92.40
2018-01-21T16:35:58.848Z,92.50
2018-01-21T16:38:39.014Z,92.70
2018-01-21T16:41:07.258Z,92.90
2018-01-21T16:43:34.759Z,92.80
2018-01-21T16:46:03.043Z,93.00
2018-01-21T16:48:31.334Z,93.10
2018-01-21T16:50:59.617Z,93.30
2018-01-21T16:53:27.074Z,93.00
2018-01-21T16:55:54.740Z,93.30
2018-01-21T16:58:22.314Z,93.10
2018-01-21T17:00:49.979Z,93.20
2018-01-21T17:03:17.445Z,93.10
2018-01-21T17:05:44.961Z,93.10
2018-01-21T17:08:13.229Z,93.10
2018-01-21T17:10:40.728Z,93.10
2018-01-21T17:13:08.241Z,93.20
2018-01-21T17:15:35.860Z,93.20
2018-01-21T17:18:04.469Z,93.20
2018-01-21T17:20:32.252Z,93.20
2018-01-21T17:23:00.941Z,93.20
2018-01-21T17:25:28.734Z,92.90
2018-01-21T17:27:57.545Z,93.00
2018-01-21T17:30:25.409Z,92.80
2018-01-21T17:32:52.986Z,92.80
2018-01-21T17:35:21.492Z,92.80
2018-01-21T17:37:49.076Z,92.80
2018-01-21T17:40:16.830Z,92.80
2018-01-21T17:42:44.855Z,92.90
2018-01-21T17:45:12.671Z,93.00
2018-01-21T17:47:40.604Z,93.00
2018-01-21T17:50:08.198Z,93.00
2018-01-21T17:52:35.743Z,93.00
2018-01-21T17:55:03.282Z,93.00
2018-01-21T17:57:30.762Z,93.30
2018-01-21T17:59:58.290Z,93.00
2018-01-21T18:02:25.925Z,93.10
2018-01-21T18:04:53.749Z,93.00
2018-01-21T18:07:21.278Z,92.90
2018-01-21T18:09:48.784Z,92.90
2018-01-21T18:12:16.322Z,93.10
2018-01-21T18:14:43.927Z,93.10
2018-01-21T18:17:11.439Z,93.10
2018-01-21T18:19:38.966Z,93.20
2018-01-21T18:22:07.485Z,93.30
2018-01-21T18:24:34.942Z,93.10
2018-01-21T18:27:02.462Z,93.20
2018-01-21T18:29:30.025Z,93.20
2018-01-21T18:31:57.541Z,93.20
2018-01-21T18:34:26.107Z,93.20
2018-01-21T18:36:54.392Z,93.20
2018-01-21T18:39:21.853Z,93.10
2018-01-21T18:41:49.369Z,93.10
2018-01-21T18:44:16.937Z,93.10
2018-01-21T18:46:44.433Z,93.10
2018-01-21T18:49:12.876Z,93.00
2018-01-21T18:51:41.184Z,93.00
2018-01-21T18:54:08.650Z,93.30
2018-01-21T18:56:36.152Z,93.00
2018-01-21T18:59:03.613Z,93.00
2018-01-21T19:01:31.119Z,92.80
2018-01-21T19:03:58.633Z,92.90
2018-01-21T19:06:26.196Z,92.90
2018-01-21T19:08:54.474Z,93.00
2018-01-21T19:11:22.039Z,93.00
2018-01-21T19:13:50.305Z,93.20
2018-01-21T19:16:17.867Z,93.10
2018-01-21T19:18:45.384Z,93.40
2018-01-21T19:21:13.669Z,93.20
2018-01-21T19:23:41.940Z,93.20
2018-01-21T19:26:09.442Z,93.20
2018-01-21T19:28:36.935Z,93.10
2018-01-21T19:31:04.385Z,93.30
2018-01-21T19:33:31.890Z,93.60
2018-01-21T19:35:59.507Z,93.60
2018-01-21T19:38:27.727Z,93.70
2018-01-21T19:40:55.234Z,93.70
2018-01-21T19:43:32.642Z,93.70
2018-01-21T19:46:00.157Z,93.70
2018-01-21T19:48:27.669Z,93.70
2018-01-21T19:50:55.133Z,93.70
2018-01-21T19:53:22.596Z,93.70
2018-01-21T19:55:50.095Z,93.80
2018-01-21T19:58:17.689Z,93.80
2018-01-21T20:00:45.209Z,93.90
2018-01-21T20:03:12.671Z,93.90
2018-01-21T20:05:40.181Z,93.90
2018-01-21T20:08:08.453Z,94.00
2018-01-21T20:10:36.065Z,94.00
2018-01-21T20:13:04.346Z,94.00
2018-01-21T20:15:31.861Z,94.00
2018-01-21T20:17:59.333Z,93.90
2018-01-21T20:20:26.962Z,93.90
2018-01-21T20:22:54.524Z,93.90
2018-01-21T20:25:22.743Z,93.80
2018-01-21T20:27:50.233Z,93.80
2018-01-21T20:30:17.701Z,93.70
2018-01-21T20:32:45.213Z,93.70
2018-01-21T20:35:13.426Z,93.50
2018-01-21T20:37:40.934Z,93.40
2018-01-21T20:40:08.405Z,93.40
2018-01-21T20:42:35.918Z,93.40
2018-01-21T20:45:04.162Z,93.40
2018-01-21T20:47:31.735Z,93.40
2018-01-21T20:49:59.241Z,93.50
2018-01-21T20:52:33.285Z,93.50
2018-01-21T20:55:00.800Z,93.50
2018-01-21T20:57:29.137Z,93.60
2018-01-21T20:59:56.659Z,93.90
2018-01-21T21:02:24.121Z,93.60
2018-01-21T21:04:51.642Z,93.60
2018-01-21T21:07:19.913Z,93.40
2018-01-21T21:09:47.430Z,93.40
2018-01-21T21:12:14.936Z,93.40
2018-01-21T21:14:42.407Z,93.30
2018-01-21T21:17:10.009Z,93.40
2018-01-21T21:19:38.236Z,93.40
2018-01-21T21:22:05.753Z,93.40
2018-01-21T21:24:34.029Z,93.60
2018-01-21T21:27:01.548Z,93.60
2018-01-21T21:29:29.004Z,93.70
2018-01-21T21:31:56.521Z,93.60
2018-01-21T21:34:23.982Z,93.60
2018-01-21T21:36:51.498Z,93.60
2018-01-21T21:39:19.796Z,93.70
2018-01-21T21:41:47.255Z,93.70
2018-01-21T21:44:15.528Z,93.60
2018-01-21T21:46:43.038Z,93.60
2018-01-21T21:49:10.588Z,93.60
2018-01-21T21:51:38.814Z,93.70
2018-01-21T21:54:06.345Z,93.70
2018-01-21T21:56:34.620Z,93.70
2018-01-21T21:59:02.891Z,93.70
2018-01-21T22:01:30.488Z,93.70
2018-01-21T22:03:58.771Z,94.00
2018-01-21T22:06:27.012Z,94.10
2018-01-21T22:08:54.514Z,94.10
2018-01-21T22:11:21.999Z,94.10
2018-01-21T22:13:50.264Z,94.40
2018-01-21T22:16:17.820Z,94.40
2018-01-21T22:18:45.286Z,94.50
2018-01-21T22:21:12.861Z,94.40
2018-01-21T22:23:40.503Z,94.40
2018-01-21T22:26:07.973Z,94.50
2018-01-21T22:28:35.521Z,94.40
2018-01-21T22:31:03.033Z,94.30
2018-01-21T22:33:30.496Z,94.30
2018-01-21T22:35:58.076Z,94.30
2018-01-21T22:38:25.533Z,94.40
2018-01-21T22:40:53.059Z,94.50
2018-01-21T22:43:21.305Z,94.60
2018-01-21T22:45:48.819Z,94.60
2018-01-21T22:48:17.057Z,94.50
2018-01-21T22:50:44.533Z,94.50
2018-01-21T22:53:12.097Z,94.50
2018-01-21T22:55:39.565Z,94.50
2018-01-21T22:58:07.032Z,94.40
2018-01-21T23:00:34.541Z,94.40
2018-01-21T23:03:02.800Z,94.50
2018-01-21T23:05:30.370Z,94.40
2018-01-21T23:07:57.834Z,94.40
2018-01-21T23:10:25.294Z,94.40
2018-01-21T23:12:53.069Z,94.50
2018-01-21T23:15:22.059Z,94.40
2018-01-21T23:17:49.526Z,94.40
2018-01-21T23:20:28.867Z,94.30
2018-01-21T23:22:56.332Z,94.30
2018-01-21T23:25:23.797Z,94.20
2018-01-21T23:27:51.259Z,94.20
2018-01-21T23:30:18.777Z,94.20
2018-01-21T23:32:46.350Z,94.20
2018-01-21T23:35:13.918Z,94.00
2018-01-21T23:37:41.389Z,94.00
2018-01-21T23:40:08.864Z,93.90
2018-01-21T23:42:36.426Z,93.90
2018-01-21T23:45:03.892Z,93.80
2018-01-21T23:47:31.346Z,93.80
2018-01-21T23:49:58.834Z,93.80
2018-01-21T23:52:26.297Z,93.80
2018-01-21T23:54:53.763Z,93.80
2018-01-21T23:57:21.239Z,93.70
2018-01-21T23:59:48.818Z,93.70
